sensor_id;sensor_type;location;lat;lon;timestamp;temperature;humidity
53272;DHT22;39160;48.580;7.756;2022-07-10T00:00:39;22.70;69.30
53272;DHT22;39160;48.580;7.756;2022-07-10T00:05:31;22.70;69.60
53272;DHT22;39160;48.580;7.756;2022-07-10T00:10:22;22.70;69.70
53272;DHT22;39160;48.580;7.756;2022-07-10T00:15:14;22.60;69.70
53272;DHT22;39160;48.580;7.756;2022-07-10T00:20:06;22.70;69.90
53272;DHT22;39160;48.580;7.756;2022-07-10T00:24:57;22.70;70.00
53272;DHT22;39160;48.580;7.756;2022-07-10T00:29:48;22.70;70.00
53272;DHT22;39160;48.580;7.756;2022-07-10T00:34:39;22.50;70.40
53272;DHT22;39160;48.580;7.756;2022-07-10T00:39:30;22.50;70.50
53272;DHT22;39160;48.580;7.756;2022-07-10T00:44:21;22.50;70.70
53272;DHT22;39160;48.580;7.756;2022-07-10T00:49:20;22.50;71.00
53272;DHT22;39160;48.580;7.756;2022-07-10T00:54:11;22.40;71.20
53272;DHT22;39160;48.580;7.756;2022-07-10T00:59:03;22.40;71.20
53272;DHT22;39160;48.580;7.756;2022-07-10T01:03:53;22.40;71.30
53272;DHT22;39160;48.580;7.756;2022-07-10T01:08:45;22.30;71.40
53272;DHT22;39160;48.580;7.756;2022-07-10T01:13:36;22.40;71.60
53272;DHT22;39160;48.580;7.756;2022-07-10T01:18:27;22.40;71.60
53272;DHT22;39160;48.580;7.756;2022-07-10T01:23:18;22.50;71.50
53272;DHT22;39160;48.580;7.756;2022-07-10T01:28:08;22.40;71.70
53272;DHT22;39160;48.580;7.756;2022-07-10T01:32:59;22.20;72.00
53272;DHT22;39160;48.580;7.756;2022-07-10T01:37:50;22.30;72.00
53272;DHT22;39160;48.580;7.756;2022-07-10T01:42:40;22.30;72.20
53272;DHT22;39160;48.580;7.756;2022-07-10T01:47:31;22.20;72.40
53272;DHT22;39160;48.580;7.756;2022-07-10T01:52:22;22.10;72.50
53272;DHT22;39160;48.580;7.756;2022-07-10T01:57:13;22.30;72.40
53272;DHT22;39160;48.580;7.756;2022-07-10T02:02:04;22.20;72.10
53272;DHT22;39160;48.580;7.756;2022-07-10T02:06:54;22.00;71.90
53272;DHT22;39160;48.580;7.756;2022-07-10T02:11:45;22.00;72.00
53272;DHT22;39160;48.580;7.756;2022-07-10T02:16:35;22.00;71.80
53272;DHT22;39160;48.580;7.756;2022-07-10T02:21:26;21.90;72.30
53272;DHT22;39160;48.580;7.756;2022-07-10T02:26:17;21.60;72.60
53272;DHT22;39160;48.580;7.756;2022-07-10T02:31:07;21.50;72.60
53272;DHT22;39160;48.580;7.756;2022-07-10T02:35:58;21.60;72.40
53272;DHT22;39160;48.580;7.756;2022-07-10T02:40:49;21.70;71.80
53272;DHT22;39160;48.580;7.756;2022-07-10T02:45:39;21.50;72.00
53272;DHT22;39160;48.580;7.756;2022-07-10T02:50:30;21.40;72.10
53272;DHT22;39160;48.580;7.756;2022-07-10T02:55:21;21.40;72.00
53272;DHT22;39160;48.580;7.756;2022-07-10T03:00:12;21.50;71.70
53272;DHT22;39160;48.580;7.756;2022-07-10T03:05:03;21.60;71.50
53272;DHT22;39160;48.580;7.756;2022-07-10T03:09:53;21.60;71.30
53272;DHT22;39160;48.580;7.756;2022-07-10T03:14:44;21.50;71.40
53272;DHT22;39160;48.580;7.756;2022-07-10T03:19:35;21.50;71.30
53272;DHT22;39160;48.580;7.756;2022-07-10T03:24:25;21.40;71.40
53272;DHT22;39160;48.580;7.756;2022-07-10T03:29:16;21.30;71.60
53272;DHT22;39160;48.580;7.756;2022-07-10T03:34:07;21.10;71.50
53272;DHT22;39160;48.580;7.756;2022-07-10T03:38:57;21.10;71.80
53272;DHT22;39160;48.580;7.756;2022-07-10T03:43:48;21.00;71.80
53272;DHT22;39160;48.580;7.756;2022-07-10T03:48:38;20.80;72.80
53272;DHT22;39160;48.580;7.756;2022-07-10T03:53:29;20.50;72.90
53272;DHT22;39160;48.580;7.756;2022-07-10T03:58:20;20.50;73.10
53272;DHT22;39160;48.580;7.756;2022-07-10T04:03:11;20.50;73.30
53272;DHT22;39160;48.580;7.756;2022-07-10T04:08:04;20.50;73.70
53272;DHT22;39160;48.580;7.756;2022-07-10T04:12:55;20.60;73.40
53272;DHT22;39160;48.580;7.756;2022-07-10T04:17:46;20.50;73.60
53272;DHT22;39160;48.580;7.756;2022-07-10T04:22:37;20.50;73.70
53272;DHT22;39160;48.580;7.756;2022-07-10T04:27:28;20.40;74.20
53272;DHT22;39160;48.580;7.756;2022-07-10T04:32:19;20.40;74.10
53272;DHT22;39160;48.580;7.756;2022-07-10T04:37:10;20.40;74.10
53272;DHT22;39160;48.580;7.756;2022-07-10T04:42:01;20.20;74.50
53272;DHT22;39160;48.580;7.756;2022-07-10T04:46:53;20.20;75.10
53272;DHT22;39160;48.580;7.756;2022-07-10T04:51:44;20.00;75.60
53272;DHT22;39160;48.580;7.756;2022-07-10T04:56:34;20.10;75.40
53272;DHT22;39160;48.580;7.756;2022-07-10T05:01:25;20.00;75.60
53272;DHT22;39160;48.580;7.756;2022-07-10T05:06:16;20.10;75.70
53272;DHT22;39160;48.580;7.756;2022-07-10T05:11:06;20.00;75.90
53272;DHT22;39160;48.580;7.756;2022-07-10T05:15:57;19.90;76.10
53272;DHT22;39160;48.580;7.756;2022-07-10T05:20:47;20.00;76.00
53272;DHT22;39160;48.580;7.756;2022-07-10T05:25:39;19.80;76.30
53272;DHT22;39160;48.580;7.756;2022-07-10T05:30:31;19.90;76.50
53272;DHT22;39160;48.580;7.756;2022-07-10T05:35:21;20.10;76.00
53272;DHT22;39160;48.580;7.756;2022-07-10T05:40:12;20.20;75.80
53272;DHT22;39160;48.580;7.756;2022-07-10T05:45:03;20.00;75.90
53272;DHT22;39160;48.580;7.756;2022-07-10T05:49:56;19.90;76.20
53272;DHT22;39160;48.580;7.756;2022-07-10T05:54:46;19.90;76.30
53272;DHT22;39160;48.580;7.756;2022-07-10T05:59:37;20.00;76.10
53272;DHT22;39160;48.580;7.756;2022-07-10T06:04:27;20.00;75.80
53272;DHT22;39160;48.580;7.756;2022-07-10T06:09:18;19.90;75.70
53272;DHT22;39160;48.580;7.756;2022-07-10T06:14:09;20.00;75.90
53272;DHT22;39160;48.580;7.756;2022-07-10T06:18:59;20.10;75.40
53272;DHT22;39160;48.580;7.756;2022-07-10T06:23:50;20.30;75.10
53272;DHT22;39160;48.580;7.756;2022-07-10T06:28:41;20.30;75.00
53272;DHT22;39160;48.580;7.756;2022-07-10T06:33:31;20.30;75.00
53272;DHT22;39160;48.580;7.756;2022-07-10T06:38:25;20.30;74.60
53272;DHT22;39160;48.580;7.756;2022-07-10T06:43:16;20.10;74.60
53272;DHT22;39160;48.580;7.756;2022-07-10T06:48:07;20.20;74.40
53272;DHT22;39160;48.580;7.756;2022-07-10T06:52:58;20.50;74.10
53272;DHT22;39160;48.580;7.756;2022-07-10T06:57:49;20.80;73.70
53272;DHT22;39160;48.580;7.756;2022-07-10T07:02:40;20.80;73.60
53272;DHT22;39160;48.580;7.756;2022-07-10T07:07:31;20.80;73.30
53272;DHT22;39160;48.580;7.756;2022-07-10T07:12:21;20.80;73.40
53272;DHT22;39160;48.580;7.756;2022-07-10T07:17:12;21.00;73.30
53272;DHT22;39160;48.580;7.756;2022-07-10T07:22:05;20.70;73.40
53272;DHT22;39160;48.580;7.756;2022-07-10T07:27:14;20.50;73.70
53272;DHT22;39160;48.580;7.756;2022-07-10T07:32:05;20.60;73.30
53272;DHT22;39160;48.580;7.756;2022-07-10T07:36:56;20.80;72.90
53272;DHT22;39160;48.580;7.756;2022-07-10T07:41:47;20.80;72.90
53272;DHT22;39160;48.580;7.756;2022-07-10T07:46:37;20.80;72.60
53272;DHT22;39160;48.580;7.756;2022-07-10T07:51:28;20.90;72.20
53272;DHT22;39160;48.580;7.756;2022-07-10T07:56:19;21.10;72.10
53272;DHT22;39160;48.580;7.756;2022-07-10T08:01:09;21.20;71.60
53272;DHT22;39160;48.580;7.756;2022-07-10T08:06:01;21.00;71.70
53272;DHT22;39160;48.580;7.756;2022-07-10T08:10:52;20.90;71.60
53272;DHT22;39160;48.580;7.756;2022-07-10T08:15:42;21.40;71.00
53272;DHT22;39160;48.580;7.756;2022-07-10T08:20:33;21.60;70.30
53272;DHT22;39160;48.580;7.756;2022-07-10T08:25:24;21.60;70.10
53272;DHT22;39160;48.580;7.756;2022-07-10T08:30:15;21.70;69.90
53272;DHT22;39160;48.580;7.756;2022-07-10T08:35:07;21.80;69.50
53272;DHT22;39160;48.580;7.756;2022-07-10T08:39:58;21.60;69.30
53272;DHT22;39160;48.580;7.756;2022-07-10T08:44:51;21.50;69.70
53272;DHT22;39160;48.580;7.756;2022-07-10T08:49:47;21.60;69.30
53272;DHT22;39160;48.580;7.756;2022-07-10T08:54:37;21.50;69.30
53272;DHT22;39160;48.580;7.756;2022-07-10T08:59:29;21.70;69.10
53272;DHT22;39160;48.580;7.756;2022-07-10T09:04:22;21.80;68.70
53272;DHT22;39160;48.580;7.756;2022-07-10T09:09:13;21.80;68.70
53272;DHT22;39160;48.580;7.756;2022-07-10T09:14:05;22.20;68.10
53272;DHT22;39160;48.580;7.756;2022-07-10T09:19:15;22.20;67.90
53272;DHT22;39160;48.580;7.756;2022-07-10T09:24:09;22.50;67.50
53272;DHT22;39160;48.580;7.756;2022-07-10T09:29:10;22.80;67.20
53272;DHT22;39160;48.580;7.756;2022-07-10T09:34:01;22.80;66.40
53272;DHT22;39160;48.580;7.756;2022-07-10T09:38:53;22.20;67.20
53272;DHT22;39160;48.580;7.756;2022-07-10T09:43:56;22.30;67.10
53272;DHT22;39160;48.580;7.756;2022-07-10T09:48:47;22.30;66.60
53272;DHT22;39160;48.580;7.756;2022-07-10T09:53:39;22.70;66.30
53272;DHT22;39160;48.580;7.756;2022-07-10T09:58:34;22.70;65.80
53272;DHT22;39160;48.580;7.756;2022-07-10T10:03:31;22.10;66.50
53272;DHT22;39160;48.580;7.756;2022-07-10T10:08:29;22.20;66.20
53272;DHT22;39160;48.580;7.756;2022-07-10T10:13:25;22.70;65.50
53272;DHT22;39160;48.580;7.756;2022-07-10T10:18:23;23.00;65.00
53272;DHT22;39160;48.580;7.756;2022-07-10T10:23:19;23.20;64.60
53272;DHT22;39160;48.580;7.756;2022-07-10T10:28:13;23.40;64.50
53272;DHT22;39160;48.580;7.756;2022-07-10T10:38:14;22.70;64.50
53272;DHT22;39160;48.580;7.756;2022-07-10T10:43:20;22.90;64.10
53272;DHT22;39160;48.580;7.756;2022-07-10T10:48:16;23.40;63.20
53272;DHT22;39160;48.580;7.756;2022-07-10T10:53:24;23.40;62.70
53272;DHT22;39160;48.580;7.756;2022-07-10T10:58:18;23.20;62.30
53272;DHT22;39160;48.580;7.756;2022-07-10T11:03:15;23.00;63.20
53272;DHT22;39160;48.580;7.756;2022-07-10T11:08:05;23.20;62.10
53272;DHT22;39160;48.580;7.756;2022-07-10T11:17:51;23.00;61.90
53272;DHT22;39160;48.580;7.756;2022-07-10T11:23:06;23.20;61.60
53272;DHT22;39160;48.580;7.756;2022-07-10T11:32:49;23.60;60.80
53272;DHT22;39160;48.580;7.756;2022-07-10T11:37:53;23.70;60.60
53272;DHT22;39160;48.580;7.756;2022-07-10T11:42:51;23.40;60.30
53272;DHT22;39160;48.580;7.756;2022-07-10T11:47:42;23.60;60.00
53272;DHT22;39160;48.580;7.756;2022-07-10T11:52:36;23.30;60.20
53272;DHT22;39160;48.580;7.756;2022-07-10T11:57:27;23.30;59.90
53272;DHT22;39160;48.580;7.756;2022-07-10T12:02:22;23.10;59.80
53272;DHT22;39160;48.580;7.756;2022-07-10T12:07:12;23.20;59.60
53272;DHT22;39160;48.580;7.756;2022-07-10T12:12:05;23.80;59.10
53272;DHT22;39160;48.580;7.756;2022-07-10T12:16:58;23.90;58.70
53272;DHT22;39160;48.580;7.756;2022-07-10T12:21:49;24.20;58.90
53272;DHT22;39160;48.580;7.756;2022-07-10T12:26:41;24.70;58.50
53272;DHT22;39160;48.580;7.756;2022-07-10T12:31:33;24.70;58.90
53272;DHT22;39160;48.580;7.756;2022-07-10T12:36:25;25.10;58.90
53272;DHT22;39160;48.580;7.756;2022-07-10T12:41:16;25.30;58.80
53272;DHT22;39160;48.580;7.756;2022-07-10T12:46:17;25.60;58.60
53272;DHT22;39160;48.580;7.756;2022-07-10T12:51:25;25.90;58.00
53272;DHT22;39160;48.580;7.756;2022-07-10T12:56:36;26.10;56.20
53272;DHT22;39160;48.580;7.756;2022-07-10T13:01:29;27.00;55.30
53272;DHT22;39160;48.580;7.756;2022-07-10T13:06:33;27.60;56.30
53272;DHT22;39160;48.580;7.756;2022-07-10T13:11:25;28.40;55.00
53272;DHT22;39160;48.580;7.756;2022-07-10T13:16:17;28.90;53.80
53272;DHT22;39160;48.580;7.756;2022-07-10T13:21:08;29.40;52.80
53272;DHT22;39160;48.580;7.756;2022-07-10T13:25:59;30.00;51.30
53272;DHT22;39160;48.580;7.756;2022-07-10T13:30:51;31.10;50.40
53272;DHT22;39160;48.580;7.756;2022-07-10T13:35:42;31.30;49.30
53272;DHT22;39160;48.580;7.756;2022-07-10T13:40:34;32.00;48.80
53272;DHT22;39160;48.580;7.756;2022-07-10T13:45:25;33.00;48.00
53272;DHT22;39160;48.580;7.756;2022-07-10T13:50:20;32.70;47.10
53272;DHT22;39160;48.580;7.756;2022-07-10T13:55:11;32.60;47.00
53272;DHT22;39160;48.580;7.756;2022-07-10T14:00:02;32.70;46.50
53272;DHT22;39160;48.580;7.756;2022-07-10T14:04:53;32.80;44.90
53272;DHT22;39160;48.580;7.756;2022-07-10T14:09:43;33.10;45.80
53272;DHT22;39160;48.580;7.756;2022-07-10T14:14:34;33.30;45.30
53272;DHT22;39160;48.580;7.756;2022-07-10T14:19:25;33.40;44.90
53272;DHT22;39160;48.580;7.756;2022-07-10T14:24:15;33.80;44.10
53272;DHT22;39160;48.580;7.756;2022-07-10T14:29:06;33.60;43.90
53272;DHT22;39160;48.580;7.756;2022-07-10T14:33:57;33.40;43.80
53272;DHT22;39160;48.580;7.756;2022-07-10T14:38:47;33.10;43.20
53272;DHT22;39160;48.580;7.756;2022-07-10T14:43:38;34.30;42.60
53272;DHT22;39160;48.580;7.756;2022-07-10T14:48:31;34.30;41.60
53272;DHT22;39160;48.580;7.756;2022-07-10T14:53:23;34.20;42.70
53272;DHT22;39160;48.580;7.756;2022-07-10T14:58:14;35.20;41.90
53272;DHT22;39160;48.580;7.756;2022-07-10T15:03:05;34.30;41.60
53272;DHT22;39160;48.580;7.756;2022-07-10T15:07:55;34.10;41.30
53272;DHT22;39160;48.580;7.756;2022-07-10T15:12:46;34.50;41.50
53272;DHT22;39160;48.580;7.756;2022-07-10T15:17:37;34.60;40.70
53272;DHT22;39160;48.580;7.756;2022-07-10T15:22:27;33.30;41.40
53272;DHT22;39160;48.580;7.756;2022-07-10T15:27:18;31.00;42.80
53272;DHT22;39160;48.580;7.756;2022-07-10T15:32:09;32.60;41.50
53272;DHT22;39160;48.580;7.756;2022-07-10T15:37:01;33.00;41.00
53272;DHT22;39160;48.580;7.756;2022-07-10T15:41:51;31.60;41.80
53272;DHT22;39160;48.580;7.756;2022-07-10T15:46:42;31.60;41.70
53272;DHT22;39160;48.580;7.756;2022-07-10T15:51:33;32.80;40.90
53272;DHT22;39160;48.580;7.756;2022-07-10T15:56:23;33.80;40.30
53272;DHT22;39160;48.580;7.756;2022-07-10T16:01:14;34.50;40.20
53272;DHT22;39160;48.580;7.756;2022-07-10T16:06:06;34.90;39.90
53272;DHT22;39160;48.580;7.756;2022-07-10T16:10:56;36.10;39.30
53272;DHT22;39160;48.580;7.756;2022-07-10T16:15:47;36.30;38.60
53272;DHT22;39160;48.580;7.756;2022-07-10T16:20:37;36.30;39.20
53272;DHT22;39160;48.580;7.756;2022-07-10T16:25:28;36.10;38.70
53272;DHT22;39160;48.580;7.756;2022-07-10T16:30:38;35.50;38.70
53272;DHT22;39160;48.580;7.756;2022-07-10T16:35:28;36.60;37.80
53272;DHT22;39160;48.580;7.756;2022-07-10T16:40:19;36.70;37.50
53272;DHT22;39160;48.580;7.756;2022-07-10T16:45:10;37.10;37.00
53272;DHT22;39160;48.580;7.756;2022-07-10T16:50:01;37.20;36.70
53272;DHT22;39160;48.580;7.756;2022-07-10T16:54:52;37.40;36.60
53272;DHT22;39160;48.580;7.756;2022-07-10T16:59:43;37.50;36.30
53272;DHT22;39160;48.580;7.756;2022-07-10T17:04:33;37.70;35.80
53272;DHT22;39160;48.580;7.756;2022-07-10T17:09:28;37.10;35.80
53272;DHT22;39160;48.580;7.756;2022-07-10T17:14:19;37.80;35.40
53272;DHT22;39160;48.580;7.756;2022-07-10T17:19:10;37.50;35.20
53272;DHT22;39160;48.580;7.756;2022-07-10T17:24:00;37.20;35.20
53272;DHT22;39160;48.580;7.756;2022-07-10T17:28:51;36.00;35.90
53272;DHT22;39160;48.580;7.756;2022-07-10T17:33:41;37.80;34.90
53272;DHT22;39160;48.580;7.756;2022-07-10T17:38:32;37.10;35.00
53272;DHT22;39160;48.580;7.756;2022-07-10T17:43:23;37.20;35.00
53272;DHT22;39160;48.580;7.756;2022-07-10T17:48:13;37.10;35.20
53272;DHT22;39160;48.580;7.756;2022-07-10T17:53:04;36.70;35.30
53272;DHT22;39160;48.580;7.756;2022-07-10T17:57:55;36.20;35.70
53272;DHT22;39160;48.580;7.756;2022-07-10T18:02:45;34.80;36.80
53272;DHT22;39160;48.580;7.756;2022-07-10T18:07:36;32.50;38.00
53272;DHT22;39160;48.580;7.756;2022-07-10T18:12:27;30.20;39.80
53272;DHT22;39160;48.580;7.756;2022-07-10T18:17:18;28.60;41.10
53272;DHT22;39160;48.580;7.756;2022-07-10T18:22:09;27.90;41.50
53272;DHT22;39160;48.580;7.756;2022-07-10T18:26:59;27.50;42.10
53272;DHT22;39160;48.580;7.756;2022-07-10T18:31:52;27.30;42.40
53272;DHT22;39160;48.580;7.756;2022-07-10T18:36:43;27.30;42.40
53272;DHT22;39160;48.580;7.756;2022-07-10T18:41:36;26.90;43.10
53272;DHT22;39160;48.580;7.756;2022-07-10T18:46:28;26.60;43.80
53272;DHT22;39160;48.580;7.756;2022-07-10T18:51:19;26.30;44.30
53272;DHT22;39160;48.580;7.756;2022-07-10T18:56:09;26.00;45.00
53272;DHT22;39160;48.580;7.756;2022-07-10T19:01:00;25.90;45.10
53272;DHT22;39160;48.580;7.756;2022-07-10T19:05:51;25.80;45.60
53272;DHT22;39160;48.580;7.756;2022-07-10T19:10:42;25.90;45.50
53272;DHT22;39160;48.580;7.756;2022-07-10T19:15:32;25.60;46.00
53272;DHT22;39160;48.580;7.756;2022-07-10T19:20:24;25.60;46.40
53272;DHT22;39160;48.580;7.756;2022-07-10T19:25:15;25.40;46.70
53272;DHT22;39160;48.580;7.756;2022-07-10T19:30:06;24.90;47.60
53272;DHT22;39160;48.580;7.756;2022-07-10T19:35:00;24.80;48.10
53272;DHT22;39160;48.580;7.756;2022-07-10T19:39:50;24.90;48.10
53272;DHT22;39160;48.580;7.756;2022-07-10T19:44:41;24.90;48.20
53272;DHT22;39160;48.580;7.756;2022-07-10T19:49:32;24.80;48.30
53272;DHT22;39160;48.580;7.756;2022-07-10T19:54:22;24.80;48.40
53272;DHT22;39160;48.580;7.756;2022-07-10T19:59:14;24.80;48.50
53272;DHT22;39160;48.580;7.756;2022-07-10T20:04:08;24.80;48.50
53272;DHT22;39160;48.580;7.756;2022-07-10T20:09:00;24.70;48.70
53272;DHT22;39160;48.580;7.756;2022-07-10T20:13:51;24.60;49.00
53272;DHT22;39160;48.580;7.756;2022-07-10T20:18:42;24.40;49.40
53272;DHT22;39160;48.580;7.756;2022-07-10T20:23:32;24.40;49.60
53272;DHT22;39160;48.580;7.756;2022-07-10T20:28:23;24.30;50.00
53272;DHT22;39160;48.580;7.756;2022-07-10T20:33:14;24.30;50.10
53272;DHT22;39160;48.580;7.756;2022-07-10T20:38:04;24.10;50.50
53272;DHT22;39160;48.580;7.756;2022-07-10T20:43:01;24.10;50.60
53272;DHT22;39160;48.580;7.756;2022-07-10T20:47:52;24.10;50.90
53272;DHT22;39160;48.580;7.756;2022-07-10T20:52:44;24.30;50.90
53272;DHT22;39160;48.580;7.756;2022-07-10T20:57:35;24.00;51.40
53272;DHT22;39160;48.580;7.756;2022-07-10T21:02:28;24.10;51.60
53272;DHT22;39160;48.580;7.756;2022-07-10T21:07:19;24.00;51.80
53272;DHT22;39160;48.580;7.756;2022-07-10T21:12:09;23.90;52.10
53272;DHT22;39160;48.580;7.756;2022-07-10T21:17:00;23.80;52.40
53272;DHT22;39160;48.580;7.756;2022-07-10T21:21:51;23.70;52.70
53272;DHT22;39160;48.580;7.756;2022-07-10T21:26:41;23.50;53.20
53272;DHT22;39160;48.580;7.756;2022-07-10T21:31:32;23.40;53.30
53272;DHT22;39160;48.580;7.756;2022-07-10T21:36:23;23.40;54.40
53272;DHT22;39160;48.580;7.756;2022-07-10T21:41:13;23.30;53.90
53272;DHT22;39160;48.580;7.756;2022-07-10T21:46:04;23.00;54.50
53272;DHT22;39160;48.580;7.756;2022-07-10T21:50:56;23.00;54.70
53272;DHT22;39160;48.580;7.756;2022-07-10T21:55:49;22.90;54.80
53272;DHT22;39160;48.580;7.756;2022-07-10T22:00:39;23.00;55.10
53272;DHT22;39160;48.580;7.756;2022-07-10T22:05:30;22.80;55.40
53272;DHT22;39160;48.580;7.756;2022-07-10T22:10:22;22.80;55.50
53272;DHT22;39160;48.580;7.756;2022-07-10T22:15:14;22.70;55.70
53272;DHT22;39160;48.580;7.756;2022-07-10T22:20:08;22.80;55.80
53272;DHT22;39160;48.580;7.756;2022-07-10T22:24:59;22.80;55.70
53272;DHT22;39160;48.580;7.756;2022-07-10T22:29:50;22.70;55.90
53272;DHT22;39160;48.580;7.756;2022-07-10T22:34:43;22.70;56.10
53272;DHT22;39160;48.580;7.756;2022-07-10T22:39:34;22.70;56.20
53272;DHT22;39160;48.580;7.756;2022-07-10T22:44:24;22.60;56.50
53272;DHT22;39160;48.580;7.756;2022-07-10T22:49:15;22.50;56.70
53272;DHT22;39160;48.580;7.756;2022-07-10T22:54:06;22.30;57.20
53272;DHT22;39160;48.580;7.756;2022-07-10T22:58:56;22.30;57.20
53272;DHT22;39160;48.580;7.756;2022-07-10T23:03:47;22.30;57.80
53272;DHT22;39160;48.580;7.756;2022-07-10T23:08:38;22.10;58.40
53272;DHT22;39160;48.580;7.756;2022-07-10T23:13:28;22.00;58.60
53272;DHT22;39160;48.580;7.756;2022-07-10T23:18:20;22.00;58.70
53272;DHT22;39160;48.580;7.756;2022-07-10T23:23:11;21.80;59.20
53272;DHT22;39160;48.580;7.756;2022-07-10T23:28:01;21.80;59.30
53272;DHT22;39160;48.580;7.756;2022-07-10T23:32:52;21.80;59.40
53272;DHT22;39160;48.580;7.756;2022-07-10T23:37:42;21.70;59.60
53272;DHT22;39160;48.580;7.756;2022-07-10T23:42:34;21.70;59.80
53272;DHT22;39160;48.580;7.756;2022-07-10T23:47:24;21.50;60.30
53272;DHT22;39160;48.580;7.756;2022-07-10T23:52:15;21.50;60.60
53272;DHT22;39160;48.580;7.756;2022-07-10T23:57:09;21.40;60.80
